Time;durP1;ratioP1;P1;durP2;ratioP2;P2;SDS_P1;SDS_P2;PMS_P1;PMS_P2;Temp;Humidity;BMP_temperature;BMP_pressure;BME280_temperature;BME280_humidity;BME280_pressure;Samples;Min_cycle;Max_cycle;Signal;HPM_P1;HPM_P2
2021/06/12 00:06:22;;;;;;;4.50;1.50;;;;;;;;;;20994515;28;20493;-53
2021/06/12 00:16:24;;;;;;;4.68;1.60;;;;;;;;;;21009995;28;20044;-53
2021/06/12 00:26:25;;;;;;;3.85;2.10;;;;;;;;;;21008566;28;20481;-53
2021/06/12 00:36:27;;;;;;;3.33;1.63;;;;;;;;;;21007618;28;20185;-58
2021/06/12 00:46:29;;;;;;;3.85;1.67;;;;;;;;;;21006436;28;20051;-57
2021/06/12 00:56:31;;;;;;;4.53;1.83;;;;;;;;;;20987778;28;20110;-58
2021/06/12 01:06:32;;;;;;;5.03;2.10;;;;;;;;;;21005432;28;20074;-58
2021/06/12 01:16:37;;;;;;;3.45;1.80;;;;;;;;;;21004391;28;20071;-58
2021/06/12 01:26:49;;;;;;;3.97;1.90;;;;;;;;;;21003219;28;20182;-52
2021/06/12 01:36:51;;;;;;;4.28;1.83;;;;;;;;;;21002958;28;20413;-52
2021/06/12 01:46:53;;;;;;;4.90;1.97;;;;;;;;;;21001794;28;20055;-56
2021/06/12 01:56:55;;;;;;;4.97;2.60;;;;;;;;;;21001106;28;20049;-57
2021/06/12 02:07:02;;;;;;;4.72;2.80;;;;;;;;;;21001298;28;20515;-52
2021/06/12 02:17:04;;;;;;;5.30;1.75;;;;;;;;;;20998829;28;20053;-53
2021/06/12 02:27:06;;;;;;;3.72;1.88;;;;;;;;;;20998023;28;20049;-53
2021/06/12 02:37:08;;;;;;;3.43;1.67;;;;;;;;;;20996979;28;20106;-56
2021/06/12 02:47:11;;;;;;;6.10;1.90;;;;;;;;;;20996829;28;20053;-51
2021/06/12 02:57:14;;;;;;;3.90;1.80;;;;;;;;;;20997041;28;20126;-51
2021/06/12 03:07:17;;;;;;;8.77;2.65;;;;;;;;;;20994654;28;20055;-54
2021/06/12 03:17:18;;;;;;;7.65;1.67;;;;;;;;;;20995428;28;20057;-56
2021/06/12 03:27:21;;;;;;;4.25;1.90;;;;;;;;;;20994575;28;20477;-55
2021/06/12 03:37:22;;;;;;;3.77;1.73;;;;;;;;;;20976405;28;20098;-57
2021/06/12 03:47:25;;;;;;;4.15;2.28;;;;;;;;;;21003426;28;20173;-54
2021/06/12 03:57:27;;;;;;;3.40;1.80;;;;;;;;;;20991757;28;20051;-54
2021/06/12 04:07:29;;;;;;;3.33;2.00;;;;;;;;;;21009671;28;20408;-51
2021/06/12 04:17:30;;;;;;;5.55;2.05;;;;;;;;;;21007959;28;20106;-55
2021/06/12 04:27:33;;;;;;;7.72;3.03;;;;;;;;;;21007853;28;20044;-54
2021/06/12 04:37:35;;;;;;;5.63;2.42;;;;;;;;;;21006441;28;20049;-51
2021/06/12 04:47:37;;;;;;;5.50;3.05;;;;;;;;;;21005720;28;20052;-53
2021/06/12 04:57:39;;;;;;;4.80;2.47;;;;;;;;;;21004904;28;20052;-54
2021/06/12 05:07:41;;;;;;;3.57;2.00;;;;;;;;;;21004657;28;20408;-52
2021/06/12 05:17:43;;;;;;;4.15;2.20;;;;;;;;;;21005186;28;20045;-52
2021/06/12 05:27:45;;;;;;;4.90;2.20;;;;;;;;;;21003870;28;20047;-51
2021/06/12 05:37:47;;;;;;;3.20;1.80;;;;;;;;;;21002650;28;20059;-53
2021/06/12 05:47:48;;;;;;;3.50;1.80;;;;;;;;;;20984005;28;20155;-51
2021/06/12 05:57:50;;;;;;;3.05;2.13;;;;;;;;;;21000817;28;20480;-52
2021/06/12 06:07:52;;;;;;;4.78;2.33;;;;;;;;;;20998812;28;20048;-53
2021/06/12 06:17:53;;;;;;;3.97;1.90;;;;;;;;;;20998938;28;20048;-53
2021/06/12 06:27:55;;;;;;;4.95;1.65;;;;;;;;;;20998308;28;20541;-52
2021/06/12 06:37:57;;;;;;;6.57;1.95;;;;;;;;;;20997377;28;20527;-54
2021/06/12 06:47:58;;;;;;;4.97;1.75;;;;;;;;;;20996765;28;20520;-49
2021/06/12 06:58:00;;;;;;;4.40;2.15;;;;;;;;;;20995594;28;20094;-57
2021/06/12 07:08:02;;;;;;;3.72;1.65;;;;;;;;;;20994950;28;20052;-53
2021/06/12 07:18:03;;;;;;;3.90;1.80;;;;;;;;;;20993660;28;20052;-53
2021/06/12 07:28:05;;;;;;;3.37;1.77;;;;;;;;;;20993902;28;20044;-52
2021/06/12 07:38:07;;;;;;;2.60;1.60;;;;;;;;;;20993622;28;20052;-54
2021/06/12 07:48:08;;;;;;;3.60;2.03;;;25.30;43.80;;;;;;20975910;28;20059;-53
2021/06/12 07:58:10;;;;;;;3.67;1.70;;;24.50;46.00;;;;;;20991057;28;20386;-54
2021/06/12 08:08:11;;;;;;;4.20;1.70;;;24.80;44.60;;;;;;20974899;28;20052;-57
2021/06/12 08:18:12;;;;;;;3.07;2.03;;;25.50;43.10;;;;;;20992800;28;20049;-54
2021/06/12 08:28:14;;;;;;;3.57;1.40;;;26.10;41.60;;;;;;20992794;28;20412;-54
2021/06/12 08:38:15;;;;;;;3.73;2.30;;;26.60;41.80;;;;;;20939441;28;20064;-55
2021/06/12 08:48:18;;;;;;;3.70;1.67;;;;;;;;;;20923717;28;20048;-55
2021/06/12 08:58:19;;;;;;;3.65;2.15;;;28.50;36.90;;;;;;20922614;28;20120;-59
2021/06/12 09:08:22;;;;;;;;;;;27.80;37.80;;;;;;20922369;28;20076;-58
2021/06/12 09:18:41;;;;;;;5.93;2.08;;;27.90;37.20;;;;;;20921009;28;19978;-57
2021/06/12 09:28:54;;;;;;;3.20;1.95;;;28.20;36.90;;;;;;20934991;28;20100;-57
2021/06/12 09:39:04;;;;;;;4.97;2.00;;;28.30;37.10;;;;;;20997029;28;20052;-58
2021/06/12 09:49:08;;;;;;;4.50;1.90;;;28.60;36.20;;;;;;21001408;28;20048;-54
2021/06/12 09:59:19;;;;;;;2.47;1.85;;;28.70;36.20;;;;;;20999798;28;20048;-53
2021/06/12 10:09:21;;;;;;;2.72;2.30;;;28.80;35.00;;;;;;20999560;28;20049;-56
2021/06/12 10:19:25;;;;;;;3.88;2.30;;;28.90;34.40;;;;;;20997994;28;20488;-56
2021/06/12 10:29:27;;;;;;;4.72;2.22;;;28.80;34.30;;;;;;20997008;28;20052;-54
2021/06/12 10:39:32;;;;;;;8.20;2.33;;;29.00;33.70;;;;;;20997187;28;20071;-53
2021/06/12 10:49:34;;;;;;;3.28;2.00;;;29.00;33.70;;;;;;20995958;28;20044;-54
2021/06/12 10:59:48;;;;;;;3.38;2.13;;;28.90;33.80;;;;;;20995803;28;20109;-55
2021/06/12 11:09:50;;;;;;;4.22;2.35;;;28.90;34.20;;;;;;20995455;28;20071;-58
2021/06/12 11:20:12;;;;;;;9.20;3.08;;;28.80;34.20;;;;;;20994842;28;20052;-59
2021/06/12 11:30:24;;;;;;;5.43;1.98;;;29.00;33.80;;;;;;20980273;28;20447;-58
2021/06/12 11:40:26;;;;;;;4.53;2.40;;;29.10;34.10;;;;;;20993558;28;20049;-56
2021/06/12 11:50:32;;;;;;;9.48;2.92;;;29.00;34.10;;;;;;20992849;28;20044;-54
2021/06/12 12:00:33;;;;;;;5.00;2.40;;;29.10;34.30;;;;;;20991898;28;20053;-59
2021/06/12 12:10:35;;;;;;;4.43;2.85;;;29.20;33.90;;;;;;21005358;28;20041;-53
2021/06/12 12:20:49;;;;;;;6.70;3.40;;;29.30;33.90;;;;;;21008529;28;20106;-55
2021/06/12 12:30:50;;;;;;;2.88;2.15;;;29.60;32.60;;;;;;21006702;28;20053;-59
2021/06/12 12:40:53;;;;;;;5.55;2.20;;;29.60;32.50;;;;;;21005946;28;20102;-58
2021/06/12 12:50:54;;;;;;;6.30;3.67;;;29.70;32.60;;;;;;21005494;28;20059;-53
2021/06/12 13:01:09;;;;;;;6.10;3.22;;;29.80;32.20;;;;;;21003464;28;20045;-54
2021/06/12 13:11:11;;;;;;;4.00;2.28;;;30.10;31.70;;;;;;20986385;28;20056;-53
2021/06/12 13:21:16;;;;;;;8.32;5.65;;;30.10;31.70;;;;;;20986886;28;20048;-53
2021/06/12 13:31:23;;;;;;;4.38;2.53;;;30.30;31.20;;;;;;21003396;28;20044;-59
2021/06/12 13:41:25;;;;;;;6.28;3.17;;;30.50;30.90;;;;;;21000960;28;20049;-53
2021/06/12 13:51:27;;;;;;;5.40;2.45;;;30.60;30.30;;;;;;21000556;28;20052;-53
2021/06/12 14:01:28;;;;;;;3.92;2.53;;;30.70;30.30;;;;;;21000193;28;20053;-58
2021/06/12 14:11:29;;;;;;;5.95;2.90;;;30.90;29.60;;;;;;20999909;28;20048;-52
2021/06/12 14:21:30;;;;;;;3.03;2.28;;;31.00;30.00;;;;;;20999243;28;20411;-53
2021/06/12 14:31:32;;;;;;;5.82;2.58;;;31.10;29.30;;;;;;20997671;28;20067;-57
2021/06/12 14:41:39;;;;;;;6.68;5.40;;;31.20;28.90;;;;;;20979572;28;20055;-58
2021/06/12 14:51:40;;;;;;;3.85;2.70;;;31.60;28.60;;;;;;20997453;28;20067;-53
2021/06/12 15:01:41;;;;;;;4.43;2.70;;;31.60;28.50;;;;;;20996253;28;20053;-60
2021/06/12 15:11:43;;;;;;;5.90;2.90;;;31.60;28.70;;;;;;20997294;28;20479;-58
2021/06/12 15:21:44;;;;;;;3.80;2.28;;;31.60;28.50;;;;;;20995799;28;20052;-54
2021/06/12 15:31:45;;;;;;;13.07;2.80;;;31.60;28.50;;;;;;20995042;28;20055;-54
2021/06/12 15:41:47;;;;;;;4.40;2.50;;;31.60;28.10;;;;;;21009623;28;20052;-54
2021/06/12 15:51:48;;;;;;;3.13;2.05;;;31.70;27.80;;;;;;21022038;28;20439;-54
2021/06/12 16:01:49;;;;;;;7.88;2.90;;;31.80;27.20;;;;;;21021186;28;20063;-58
2021/06/12 16:11:50;;;;;;;4.07;2.10;;;31.80;27.10;;;;;;21020848;28;20401;-54
2021/06/12 16:21:52;;;;;;;3.33;2.70;;;31.70;27.50;;;;;;21019833;28;20052;-54
2021/06/12 16:31:53;;;;;;;4.65;2.05;;;31.80;27.10;;;;;;21019031;28;20053;-53
2021/06/12 16:41:54;;;;;;;4.55;2.60;;;31.80;26.50;;;;;;21019147;28;20074;-53
2021/06/12 16:51:55;;;;;;;3.10;2.45;;;31.90;27.10;;;;;;21013409;28;20060;-54
2021/06/12 17:01:57;;;;;;;4.93;2.00;;;31.80;26.90;;;;;;21004572;28;20060;-53
2021/06/12 17:11:58;;;;;;;3.33;2.10;;;31.70;26.90;;;;;;21004263;28;20049;-52
2021/06/12 17:22:00;;;;;;;3.40;2.55;;;31.70;26.70;;;;;;21003310;28;20455;-53
2021/06/12 17:32:01;;;;;;;4.13;2.35;;;31.70;26.70;;;;;;21002409;28;20048;-55
2021/06/12 17:42:03;;;;;;;5.00;2.50;;;31.50;27.40;;;;;;21001559;28;20052;-52
2021/06/12 17:52:05;;;;;;;5.20;2.47;;;31.50;27.70;;;;;;21000752;28;20052;-54
2021/06/12 18:02:07;;;;;;;5.15;2.63;;;31.30;27.90;;;;;;21000210;28;20481;-54
2021/06/12 18:12:10;;;;;;;4.40;2.15;;;31.20;28.00;;;;;;21001367;28;20048;-53
2021/06/12 18:22:12;;;;;;;6.65;3.22;;;31.10;28.20;;;;;;20998874;28;20055;-54
2021/06/12 18:32:13;;;;;;;5.90;3.53;;;31.10;28.50;;;;;;20997457;28;20049;-55
2021/06/12 18:42:14;;;;;;;8.68;3.28;;;30.90;29.00;;;;;;20997992;28;20049;-54
2021/06/12 18:52:16;;;;;;;6.75;2.55;;;30.70;29.50;;;;;;20996852;28;20044;-55
2021/06/12 19:02:18;;;;;;;6.57;2.85;;;30.60;29.90;;;;;;20996627;28;20055;-54
2021/06/12 19:12:19;;;;;;;10.80;3.58;;;30.40;30.50;;;;;;20995373;28;20045;-53
2021/06/12 19:22:20;;;;;;;6.68;3.97;;;30.10;31.10;;;;;;20996296;28;20451;-54
2021/06/12 19:32:21;;;;;;;7.68;3.63;;;30.00;31.40;;;;;;20994859;28;20102;-54
2021/06/12 19:42:23;;;;;;;7.53;4.05;;;29.70;31.90;;;;;;20992800;28;20049;-59
2021/06/12 19:52:24;;;;;;;5.68;3.03;;;29.60;32.40;;;;;;20992662;28;20052;-53
2021/06/12 20:02:25;;;;;;;4.22;3.13;;;29.30;32.90;;;;;;20993336;28;20068;-55
2021/06/12 20:12:27;;;;;;;7.63;3.25;;;29.10;33.50;;;;;;20993089;28;20087;-53
2021/06/12 20:22:29;;;;;;;8.02;3.70;;;28.90;34.10;;;;;;20992559;28;20048;-54
2021/06/12 20:32:30;;;;;;;11.55;4.15;;;28.80;34.40;;;;;;21005264;28;20067;-53
2021/06/12 20:42:32;;;;;;;10.07;4.25;;;28.60;34.80;;;;;;21007235;28;20484;-53
2021/06/12 20:52:35;;;;;;;6.50;3.58;;;28.50;35.00;;;;;;21006833;28;20041;-55
2021/06/12 21:02:36;;;;;;;4.97;3.92;;;28.30;35.40;;;;;;21005352;28;20044;-53
2021/06/12 21:12:38;;;;;;;7.63;3.22;;;28.20;35.60;;;;;;21006420;28;20045;-55
2021/06/12 21:22:39;;;;;;;5.15;3.25;;;28.10;35.50;;;;;;21004122;28;20064;-53
2021/06/12 21:32:41;;;;;;;3.83;3.22;;;27.90;35.60;;;;;;21003530;28;20518;-53
2021/06/12 21:42:43;;;;;;;5.63;3.05;;;27.60;35.70;;;;;;21002648;28;20400;-59
2021/06/12 21:52:44;;;;;;;5.25;3.60;;;27.50;35.80;;;;;;20984099;28;20044;-56
2021/06/12 22:02:46;;;;;;;6.10;3.90;;;27.40;36.10;;;;;;21001171;28;20412;-55
2021/06/12 22:12:47;;;;;;;9.05;2.95;;;27.20;36.00;;;;;;21000552;28;20044;-53
2021/06/12 22:22:48;;;;;;;3.65;2.95;;;27.10;35.90;;;;;;21000213;28;20489;-53
2021/06/12 22:32:49;;;;;;;;;;;26.90;35.60;;;;;;20999448;28;20489;-54
2021/06/12 22:42:51;;;;;;;5.63;3.13;;;26.60;35.80;;;;;;20998445;28;20394;-60
2021/06/12 22:52:52;;;;;;;4.10;3.33;;;26.50;35.80;;;;;;20997257;28;20052;-53
2021/06/12 23:02:53;;;;;;;4.95;2.92;;;26.40;36.50;;;;;;20997363;28;20106;-53
2021/06/12 23:12:55;;;;;;;3.50;2.83;;;26.20;36.90;;;;;;20994787;28;20094;-53
2021/06/12 23:22:56;;;;;;;3.97;3.15;;;26.10;37.30;;;;;;20995319;28;20060;-54
2021/06/12 23:32:58;;;;;;;4.22;2.95;;;26.10;37.30;;;;;;20994823;28;20420;-53
2021/06/12 23:42:59;;;;;;;4.82;3.03;;;25.90;37.30;;;;;;20976951;28;20171;-54
2021/06/12 23:53:00;;;;;;;4.23;2.80;;;25.80;37.30;;;;;;20994803;28;20472;-53
